sensor_id;sensor_type;location;lat;lon;timestamp;pressure;altitude;pressure_sealevel;temperature;humidity
59170;BME280;52474;52.236;5.114;2022-10-22T00:01:18;100903.72;;;13.30;100.00
59170;BME280;52474;52.236;5.114;2022-10-22T00:03:44;100907.31;;;13.39;100.00
59170;BME280;52474;52.236;5.114;2022-10-22T00:06:10;100904.94;;;13.36;100.00
59170;BME280;52474;52.236;5.114;2022-10-22T00:08:36;100885.50;;;13.26;100.00
59170;BME280;52474;52.236;5.114;2022-10-22T00:11:28;100913.16;;;13.43;100.00
59170;BME280;52474;52.236;5.114;2022-10-22T00:13:53;100897.25;;;13.33;100.00
59170;BME280;52474;52.236;5.114;2022-10-22T00:16:19;100882.75;;;13.27;100.00
59170;BME280;52474;52.236;5.114;2022-10-22T00:18:45;100880.59;;;13.31;100.00
59170;BME280;52474;52.236;5.114;2022-10-22T00:21:11;100896.03;;;13.27;100.00
59170;BME280;52474;52.236;5.114;2022-10-22T00:23:40;100910.50;;;13.43;100.00
59170;BME280;52474;52.236;5.114;2022-10-22T00:26:06;100904.41;;;13.32;100.00
59170;BME280;52474;52.236;5.114;2022-10-22T00:28:31;100916.13;;;13.40;100.00
59170;BME280;52474;52.236;5.114;2022-10-22T00:30:58;100926.78;;;13.40;100.00
59170;BME280;52474;52.236;5.114;2022-10-22T00:33:25;100918.63;;;13.41;100.00
59170;BME280;52474;52.236;5.114;2022-10-22T00:35:51;100904.41;;;13.32;100.00
59170;BME280;52474;52.236;5.114;2022-10-22T00:38:17;100907.75;;;13.35;100.00
59170;BME280;52474;52.236;5.114;2022-10-22T00:40:43;100890.72;;;13.27;100.00
59170;BME280;52474;52.236;5.114;2022-10-22T00:43:14;100910.94;;;13.38;100.00
59170;BME280;52474;52.236;5.114;2022-10-22T00:45:40;100895.59;;;13.22;100.00
59170;BME280;52474;52.236;5.114;2022-10-22T00:48:09;100905.84;;;13.27;100.00
59170;BME280;52474;52.236;5.114;2022-10-22T00:53:08;100914.06;;;13.24;100.00
59170;BME280;52474;52.236;5.114;2022-10-22T00:55:36;100912.69;;;13.20;100.00
59170;BME280;52474;52.236;5.114;2022-10-22T00:58:02;100924.56;;;13.25;100.00
59170;BME280;52474;52.236;5.114;2022-10-22T01:00:28;100922.03;;;13.24;100.00
59170;BME280;52474;52.236;5.114;2022-10-22T01:02:54;100926.00;;;13.20;100.00
59170;BME280;52474;52.236;5.114;2022-10-22T01:05:21;100909.50;;;13.06;100.00
59170;BME280;52474;52.236;5.114;2022-10-22T01:07:50;100917.00;;;13.21;100.00
59170;BME280;52474;52.236;5.114;2022-10-22T01:10:34;100930.19;;;13.22;100.00
59170;BME280;52474;52.236;5.114;2022-10-22T01:13:27;100936.63;;;13.20;100.00
59170;BME280;52474;52.236;5.114;2022-10-22T01:18:35;100937.59;;;13.19;100.00
59170;BME280;52474;52.236;5.114;2022-10-22T01:21:05;100947.97;;;13.22;100.00
59170;BME280;52474;52.236;5.114;2022-10-22T01:23:51;100939.13;;;13.21;100.00
59170;BME280;52474;52.236;5.114;2022-10-22T01:26:53;100936.91;;;13.17;100.00
59170;BME280;52474;52.236;5.114;2022-10-22T01:29:26;100940.00;;;13.22;100.00
59170;BME280;52474;52.236;5.114;2022-10-22T01:31:59;100929.38;;;13.12;100.00
59170;BME280;52474;52.236;5.114;2022-10-22T01:34:27;100930.91;;;13.15;100.00
59170;BME280;52474;52.236;5.114;2022-10-22T01:36:54;100900.44;;;12.99;100.00
59170;BME280;52474;52.236;5.114;2022-10-22T01:39:22;100926.25;;;13.17;100.00
59170;BME280;52474;52.236;5.114;2022-10-22T01:41:53;100928.78;;;13.18;100.00
59170;BME280;52474;52.236;5.114;2022-10-22T01:44:28;100913.97;;;13.16;100.00
59170;BME280;52474;52.236;5.114;2022-10-22T01:52:51;100913.09;;;13.25;100.00
59170;BME280;52474;52.236;5.114;2022-10-22T01:55:52;100919.53;;;13.32;100.00
59170;BME280;52474;52.236;5.114;2022-10-22T01:58:38;100923.84;;;13.33;100.00
59170;BME280;52474;52.236;5.114;2022-10-22T02:01:24;100920.22;;;13.34;100.00
59170;BME280;52474;52.236;5.114;2022-10-22T02:04:05;100892.25;;;13.20;100.00
59170;BME280;52474;52.236;5.114;2022-10-22T02:06:36;100886.53;;;13.15;100.00
59170;BME280;52474;52.236;5.114;2022-10-22T02:09:05;100896.13;;;13.26;100.00
59170;BME280;52474;52.236;5.114;2022-10-22T02:11:32;100912.81;;;13.28;100.00
59170;BME280;52474;52.236;5.114;2022-10-22T02:14:00;100895.66;;;13.13;100.00
59170;BME280;52474;52.236;5.114;2022-10-22T02:16:34;100894.94;;;13.10;100.00
59170;BME280;52474;52.236;5.114;2022-10-22T02:19:08;100890.75;;;13.08;100.00
59170;BME280;52474;52.236;5.114;2022-10-22T02:21:37;100899.84;;;13.15;100.00
59170;BME280;52474;52.236;5.114;2022-10-22T02:24:03;100903.31;;;13.16;100.00
59170;BME280;52474;52.236;5.114;2022-10-22T02:26:36;100909.88;;;13.21;100.00
59170;BME280;52474;52.236;5.114;2022-10-22T02:29:19;100906.25;;;13.22;100.00
59170;BME280;52474;52.236;5.114;2022-10-22T02:31:47;100906.25;;;13.22;100.00
59170;BME280;52474;52.236;5.114;2022-10-22T02:34:20;100895.47;;;13.14;100.00
59170;BME280;52474;52.236;5.114;2022-10-22T02:36:47;100890.06;;;13.06;100.00
59170;BME280;52474;52.236;5.114;2022-10-22T02:39:14;100892.94;;;12.95;100.00
59170;BME280;52474;52.236;5.114;2022-10-22T02:41:41;100891.50;;;13.00;100.00
59170;BME280;52474;52.236;5.114;2022-10-22T02:44:10;100905.06;;;13.07;100.00
59170;BME280;52474;52.236;5.114;2022-10-22T02:46:37;100879.22;;;12.89;100.00
59170;BME280;52474;52.236;5.114;2022-10-22T02:49:03;100905.63;;;13.01;100.00
59170;BME280;52474;52.236;5.114;2022-10-22T02:51:29;100906.75;;;12.98;100.00
59170;BME280;52474;52.236;5.114;2022-10-22T02:53:55;100900.16;;;13.02;100.00
59170;BME280;52474;52.236;5.114;2022-10-22T02:56:21;100890.81;;;12.98;100.00
59170;BME280;52474;52.236;5.114;2022-10-22T02:58:46;100881.34;;;12.86;100.00
59170;BME280;52474;52.236;5.114;2022-10-22T03:01:12;100916.13;;;13.02;100.00
59170;BME280;52474;52.236;5.114;2022-10-22T03:03:38;100911.03;;;13.09;100.00
59170;BME280;52474;52.236;5.114;2022-10-22T03:06:04;100912.00;;;13.18;100.00
59170;BME280;52474;52.236;5.114;2022-10-22T03:08:29;100912.97;;;13.17;100.00
59170;BME280;52474;52.236;5.114;2022-10-22T03:10:55;100911.31;;;13.16;100.00
59170;BME280;52474;52.236;5.114;2022-10-22T03:13:20;100923.59;;;13.17;100.00
59170;BME280;52474;52.236;5.114;2022-10-22T03:15:49;100919.69;;;13.21;100.00
59170;BME280;52474;52.236;5.114;2022-10-22T03:18:16;100889.97;;;12.98;100.00
59170;BME280;52474;52.236;5.114;2022-10-22T03:20:42;100924.47;;;13.17;100.00
59170;BME280;52474;52.236;5.114;2022-10-22T03:23:09;100906.03;;;13.06;100.00
59170;BME280;52474;52.236;5.114;2022-10-22T03:25:38;100919.59;;;13.13;100.00
59170;BME280;52474;52.236;5.114;2022-10-22T03:28:07;100901.03;;;12.93;100.00
59170;BME280;52474;52.236;5.114;2022-10-22T03:30:35;100929.00;;;13.07;100.00
59170;BME280;52474;52.236;5.114;2022-10-22T03:33:01;100922.00;;;12.96;100.00
59170;BME280;52474;52.236;5.114;2022-10-22T03:35:26;100922.00;;;12.96;100.00
59170;BME280;52474;52.236;5.114;2022-10-22T03:37:53;100938.69;;;12.88;100.00
59170;BME280;52474;52.236;5.114;2022-10-22T03:40:19;100936.72;;;12.91;100.00
59170;BME280;52474;52.236;5.114;2022-10-22T03:42:45;100935.03;;;12.89;100.00
59170;BME280;52474;52.236;5.114;2022-10-22T03:45:11;100915.38;;;12.73;100.00
59170;BME280;52474;52.236;5.114;2022-10-22T03:47:39;100937.28;;;12.84;100.00
59170;BME280;52474;52.236;5.114;2022-10-22T03:50:05;100945.53;;;12.81;100.00
59170;BME280;52474;52.236;5.114;2022-10-22T03:52:35;100940.66;;;12.77;100.00
59170;BME280;52474;52.236;5.114;2022-10-22T03:55:01;100934.94;;;12.72;100.00
59170;BME280;52474;52.236;5.114;2022-10-22T03:57:27;100908.56;;;12.51;100.00
59170;BME280;52474;52.236;5.114;2022-10-22T03:59:53;100944.44;;;12.64;100.00
59170;BME280;52474;52.236;5.114;2022-10-22T04:02:21;100944.88;;;12.60;100.00
59170;BME280;52474;52.236;5.114;2022-10-22T04:04:47;100945.88;;;12.59;100.00
59170;BME280;52474;52.236;5.114;2022-10-22T04:07:13;100951.19;;;12.49;100.00
59170;BME280;52474;52.236;5.114;2022-10-22T04:09:39;100933.59;;;12.38;100.00
59170;BME280;52474;52.236;5.114;2022-10-22T04:12:04;100955.94;;;12.45;100.00
59170;BME280;52474;52.236;5.114;2022-10-22T04:14:32;100953.00;;;12.39;100.00
59170;BME280;52474;52.236;5.114;2022-10-22T04:16:58;100961.94;;;12.48;100.00
59170;BME280;52474;52.236;5.114;2022-10-22T04:19:23;100963.75;;;12.47;100.00
59170;BME280;52474;52.236;5.114;2022-10-22T04:21:49;100963.75;;;12.47;100.00
59170;BME280;52474;52.236;5.114;2022-10-22T04:24:15;100961.41;;;12.44;100.00
59170;BME280;52474;52.236;5.114;2022-10-22T04:26:41;100960.84;;;12.40;100.00
59170;BME280;52474;52.236;5.114;2022-10-22T04:29:07;100961.25;;;12.36;100.00
59170;BME280;52474;52.236;5.114;2022-10-22T04:31:33;100977.03;;;12.47;100.00
59170;BME280;52474;52.236;5.114;2022-10-22T04:34:00;100985.59;;;12.51;100.00
59170;BME280;52474;52.236;5.114;2022-10-22T04:36:27;100962.94;;;12.37;100.00
59170;BME280;52474;52.236;5.114;2022-10-22T04:38:55;100969.66;;;12.51;100.00
59170;BME280;52474;52.236;5.114;2022-10-22T04:41:24;100968.94;;;12.49;100.00
59170;BME280;52474;52.236;5.114;2022-10-22T04:43:50;100965.47;;;12.48;100.00
59170;BME280;52474;52.236;5.114;2022-10-22T04:46:17;100972.56;;;12.48;100.00
59170;BME280;52474;52.236;5.114;2022-10-22T04:48:43;100966.56;;;12.45;100.00
59170;BME280;52474;52.236;5.114;2022-10-22T04:51:12;100946.28;;;12.35;100.00
59170;BME280;52474;52.236;5.114;2022-10-22T04:53:38;100970.47;;;12.51;100.00
59170;BME280;52474;52.236;5.114;2022-10-22T04:56:15;100978.56;;;12.50;100.00
59170;BME280;52474;52.236;5.114;2022-10-22T04:58:44;100960.28;;;12.46;100.00
59170;BME280;52474;52.236;5.114;2022-10-22T05:01:15;100980.00;;;12.54;100.00
59170;BME280;52474;52.236;5.114;2022-10-22T05:03:42;100988.50;;;12.57;100.00
59170;BME280;52474;52.236;5.114;2022-10-22T05:06:08;100943.63;;;12.35;100.00
59170;BME280;52474;52.236;5.114;2022-10-22T05:08:34;100967.81;;;12.51;100.00
59170;BME280;52474;52.236;5.114;2022-10-22T05:11:00;100971.03;;;12.45;100.00
59170;BME280;52474;52.236;5.114;2022-10-22T05:13:26;100980.41;;;12.59;100.00
59170;BME280;52474;52.236;5.114;2022-10-22T05:15:51;100972.16;;;12.52;100.00
59170;BME280;52474;52.236;5.114;2022-10-22T05:18:17;100978.88;;;12.56;100.00
59170;BME280;52474;52.236;5.114;2022-10-22T05:20:42;100980.81;;;12.54;100.00
59170;BME280;52474;52.236;5.114;2022-10-22T05:23:08;100981.41;;;12.48;100.00
59170;BME280;52474;52.236;5.114;2022-10-22T05:25:37;100989.38;;;12.48;100.00
59170;BME280;52474;52.236;5.114;2022-10-22T05:28:04;100961.97;;;12.28;100.00
59170;BME280;52474;52.236;5.114;2022-10-22T05:30:29;100983.88;;;12.20;100.00
59170;BME280;52474;52.236;5.114;2022-10-22T05:32:55;100977.16;;;12.07;100.00
59170;BME280;52474;52.236;5.114;2022-10-22T05:35:20;100983.44;;;12.06;100.00
59170;BME280;52474;52.236;5.114;2022-10-22T05:37:46;100979.25;;;12.03;100.00
59170;BME280;52474;52.236;5.114;2022-10-22T05:40:12;100996.47;;;12.09;100.00
59170;BME280;52474;52.236;5.114;2022-10-22T05:42:38;100996.59;;;12.17;100.00
59170;BME280;52474;52.236;5.114;2022-10-22T05:45:04;100987.22;;;12.22;100.00
59170;BME280;52474;52.236;5.114;2022-10-22T05:47:29;100993.13;;;12.26;100.00
59170;BME280;52474;52.236;5.114;2022-10-22T05:49:55;101000.94;;;12.37;100.00
59170;BME280;52474;52.236;5.114;2022-10-22T05:52:24;100993.84;;;12.28;100.00
59170;BME280;52474;52.236;5.114;2022-10-22T05:54:49;100995.50;;;12.29;100.00
59170;BME280;52474;52.236;5.114;2022-10-22T05:57:15;100996.91;;;12.23;100.00
59170;BME280;52474;52.236;5.114;2022-10-22T05:59:43;101021.66;;;12.43;100.00
59170;BME280;52474;52.236;5.114;2022-10-22T06:02:09;101006.66;;;12.33;100.00
59170;BME280;52474;52.236;5.114;2022-10-22T06:04:35;101005.56;;;12.45;100.00
59170;BME280;52474;52.236;5.114;2022-10-22T06:07:01;101013.13;;;12.50;100.00
59170;BME280;52474;52.236;5.114;2022-10-22T06:09:30;101027.53;;;12.57;100.00
59170;BME280;52474;52.236;5.114;2022-10-22T06:11:58;101031.41;;;12.53;100.00
59170;BME280;52474;52.236;5.114;2022-10-22T06:14:25;101032.53;;;12.60;100.00
59170;BME280;52474;52.236;5.114;2022-10-22T06:16:51;101031.16;;;12.65;100.00
59170;BME280;52474;52.236;5.114;2022-10-22T06:19:19;101026.41;;;12.59;100.00
59170;BME280;52474;52.236;5.114;2022-10-22T06:21:45;101022.50;;;12.63;100.00
59170;BME280;52474;52.236;5.114;2022-10-22T06:24:11;101024.44;;;12.71;100.00
59170;BME280;52474;52.236;5.114;2022-10-22T06:26:38;101030.47;;;12.83;100.00
59170;BME280;52474;52.236;5.114;2022-10-22T06:29:04;101012.81;;;12.72;100.00
59170;BME280;52474;52.236;5.114;2022-10-22T06:31:30;101017.00;;;12.84;100.00
59170;BME280;52474;52.236;5.114;2022-10-22T06:34:06;101037.84;;;12.99;100.00
59170;BME280;52474;52.236;5.114;2022-10-22T06:36:32;101055.50;;;13.09;100.00
59170;BME280;52474;52.236;5.114;2022-10-22T06:38:59;101054.50;;;13.10;100.00
59170;BME280;52474;52.236;5.114;2022-10-22T06:41:24;101031.41;;;12.92;100.00
59170;BME280;52474;52.236;5.114;2022-10-22T06:43:50;101059.69;;;13.12;100.00
59170;BME280;52474;52.236;5.114;2022-10-22T06:46:20;101064.28;;;13.20;100.00
59170;BME280;52474;52.236;5.114;2022-10-22T06:48:50;101047.91;;;13.15;100.00
59170;BME280;52474;52.236;5.114;2022-10-22T06:51:16;101070.59;;;13.28;100.00
59170;BME280;52474;52.236;5.114;2022-10-22T06:53:42;101070.16;;;13.33;100.00
59170;BME280;52474;52.236;5.114;2022-10-22T06:56:11;101071.69;;;13.36;100.00
59170;BME280;52474;52.236;5.114;2022-10-22T06:58:36;101080.66;;;13.44;100.00
59170;BME280;52474;52.236;5.114;2022-10-22T07:01:03;101085.53;;;13.49;100.00
59170;BME280;52474;52.236;5.114;2022-10-22T07:03:29;101091.66;;;13.59;100.00
59170;BME280;52474;52.236;5.114;2022-10-22T07:05:58;101072.34;;;13.57;100.00
59170;BME280;52474;52.236;5.114;2022-10-22T07:08:24;101084.66;;;13.58;100.00
59170;BME280;52474;52.236;5.114;2022-10-22T07:10:49;101089.84;;;13.60;100.00
59170;BME280;52474;52.236;5.114;2022-10-22T07:13:15;101084.13;;;13.55;100.00
59170;BME280;52474;52.236;5.114;2022-10-22T07:15:41;101094.88;;;13.63;100.00
59170;BME280;52474;52.236;5.114;2022-10-22T07:18:06;101067.44;;;13.52;100.00
59170;BME280;52474;52.236;5.114;2022-10-22T07:20:32;101099.03;;;13.75;100.00
59170;BME280;52474;52.236;5.114;2022-10-22T07:22:58;101087.56;;;13.65;100.00
59170;BME280;52474;52.236;5.114;2022-10-22T07:25:24;101098.50;;;13.71;100.00
59170;BME280;52474;52.236;5.114;2022-10-22T07:27:49;101109.09;;;13.81;100.00
59170;BME280;52474;52.236;5.114;2022-10-22T07:30:16;101105.72;;;13.89;100.00
59170;BME280;52474;52.236;5.114;2022-10-22T07:32:42;101102.84;;;14.00;100.00
59170;BME280;52474;52.236;5.114;2022-10-22T07:35:08;101102.91;;;14.18;100.00
59170;BME280;52474;52.236;5.114;2022-10-22T07:37:34;101111.13;;;14.52;100.00
59170;BME280;52474;52.236;5.114;2022-10-22T07:39:59;101112.50;;;14.84;100.00
59170;BME280;52474;52.236;5.114;2022-10-22T07:42:25;101110.66;;;14.85;100.00
59170;BME280;52474;52.236;5.114;2022-10-22T07:44:51;101107.81;;;14.86;100.00
59170;BME280;52474;52.236;5.114;2022-10-22T07:47:17;101099.75;;;14.78;100.00
59170;BME280;52474;52.236;5.114;2022-10-22T07:49:42;101096.78;;;14.81;100.00
59170;BME280;52474;52.236;5.114;2022-10-22T07:52:08;101110.94;;;15.17;100.00
59170;BME280;52474;52.236;5.114;2022-10-22T07:54:34;101109.47;;;15.41;100.00
59170;BME280;52474;52.236;5.114;2022-10-22T07:56:59;101121.00;;;15.23;100.00
59170;BME280;52474;52.236;5.114;2022-10-22T07:59:25;101126.19;;;15.07;100.00
59170;BME280;52474;52.236;5.114;2022-10-22T08:01:51;101130.09;;;14.95;100.00
59170;BME280;52474;52.236;5.114;2022-10-22T08:04:17;101144.03;;;15.07;100.00
59170;BME280;52474;52.236;5.114;2022-10-22T08:06:42;101145.78;;;14.80;100.00
59170;BME280;52474;52.236;5.114;2022-10-22T08:09:08;101150.53;;;14.58;100.00
59170;BME280;52474;52.236;5.114;2022-10-22T08:11:34;101146.97;;;14.40;100.00
59170;BME280;52474;52.236;5.114;2022-10-22T08:14:00;101160.09;;;14.24;100.00
59170;BME280;52474;52.236;5.114;2022-10-22T08:16:25;101141.63;;;14.12;100.00
59170;BME280;52474;52.236;5.114;2022-10-22T08:18:51;101150.88;;;14.18;100.00
59170;BME280;52474;52.236;5.114;2022-10-22T08:21:16;101164.50;;;14.43;100.00
59170;BME280;52474;52.236;5.114;2022-10-22T08:23:42;101145.53;;;14.46;100.00
59170;BME280;52474;52.236;5.114;2022-10-22T08:26:09;101149.16;;;14.45;100.00
59170;BME280;52474;52.236;5.114;2022-10-22T08:28:35;101172.94;;;14.66;100.00
59170;BME280;52474;52.236;5.114;2022-10-22T08:31:06;101169.22;;;14.76;100.00
59170;BME280;52474;52.236;5.114;2022-10-22T08:33:35;101158.03;;;14.73;100.00
59170;BME280;52474;52.236;5.114;2022-10-22T08:36:03;101147.38;;;14.73;100.00
59170;BME280;52474;52.236;5.114;2022-10-22T08:38:29;101171.06;;;14.94;100.00
59170;BME280;52474;52.236;5.114;2022-10-22T08:41:05;101182.66;;;15.02;100.00
59170;BME280;52474;52.236;5.114;2022-10-22T08:46:18;101187.28;;;15.18;100.00
59170;BME280;52474;52.236;5.114;2022-10-22T08:48:52;101166.81;;;15.19;100.00
59170;BME280;52474;52.236;5.114;2022-10-22T08:51:24;101165.22;;;15.26;100.00
59170;BME280;52474;52.236;5.114;2022-10-22T08:54:00;101189.63;;;15.57;100.00
59170;BME280;52474;52.236;5.114;2022-10-22T08:56:30;101186.28;;;15.55;100.00
59170;BME280;52474;52.236;5.114;2022-10-22T08:59:05;101192.00;;;15.78;100.00
59170;BME280;52474;52.236;5.114;2022-10-22T09:01:39;101198.63;;;15.74;100.00
59170;BME280;52474;52.236;5.114;2022-10-22T09:06:52;101179.63;;;15.59;100.00
59170;BME280;52474;52.236;5.114;2022-10-22T09:09:20;101160.81;;;15.43;100.00
59170;BME280;52474;52.236;5.114;2022-10-22T09:11:49;101188.72;;;15.66;100.00
59170;BME280;52474;52.236;5.114;2022-10-22T09:14:18;101200.09;;;15.95;100.00
59170;BME280;52474;52.236;5.114;2022-10-22T09:19:40;101214.53;;;16.36;100.00
59170;BME280;52474;52.236;5.114;2022-10-22T09:27:45;101210.81;;;16.29;100.00
59170;BME280;52474;52.236;5.114;2022-10-22T09:30:15;101207.31;;;16.28;100.00
59170;BME280;52474;52.236;5.114;2022-10-22T09:32:42;101228.50;;;16.99;100.00
59170;BME280;52474;52.236;5.114;2022-10-22T09:35:10;101208.47;;;17.68;100.00
59170;BME280;52474;52.236;5.114;2022-10-22T09:37:46;101223.03;;;18.07;100.00
59170;BME280;52474;52.236;5.114;2022-10-22T09:40:13;101202.97;;;17.94;100.00
59170;BME280;52474;52.236;5.114;2022-10-22T09:42:40;101193.66;;;20.73;100.00
59170;BME280;52474;52.236;5.114;2022-10-22T09:45:05;101223.00;;;24.73;100.00
59170;BME280;52474;52.236;5.114;2022-10-22T09:47:39;101209.75;;;24.97;100.00
59170;BME280;52474;52.236;5.114;2022-10-22T09:50:20;101223.06;;;27.81;100.00
59170;BME280;52474;52.236;5.114;2022-10-22T09:53:25;101226.72;;;27.22;100.00
59170;BME280;52474;52.236;5.114;2022-10-22T09:56:00;101210.84;;;28.19;100.00
59170;BME280;52474;52.236;5.114;2022-10-22T09:58:41;101215.72;;;25.94;100.00
59170;BME280;52474;52.236;5.114;2022-10-22T10:01:07;101205.50;;;23.24;100.00
59170;BME280;52474;52.236;5.114;2022-10-22T10:03:33;101243.31;;;20.56;100.00
59170;BME280;52474;52.236;5.114;2022-10-22T10:06:00;101228.19;;;19.26;100.00
59170;BME280;52474;52.236;5.114;2022-10-22T10:08:27;101211.91;;;21.57;100.00
59170;BME280;52474;52.236;5.114;2022-10-22T10:11:03;101227.47;;;19.93;100.00
59170;BME280;52474;52.236;5.114;2022-10-22T10:13:45;101256.19;;;20.31;100.00
59170;BME280;52474;52.236;5.114;2022-10-22T10:24:21;101269.25;;;17.84;100.00
59170;BME280;52474;52.236;5.114;2022-10-22T10:27:24;101279.81;;;17.86;100.00
59170;BME280;52474;52.236;5.114;2022-10-22T10:30:17;101289.13;;;18.39;100.00
59170;BME280;52474;52.236;5.114;2022-10-22T10:40:50;101274.50;;;25.50;100.00
59170;BME280;52474;52.236;5.114;2022-10-22T10:46:03;101291.50;;;25.32;100.00
59170;BME280;52474;52.236;5.114;2022-10-22T10:51:38;101282.09;;;24.11;100.00
59170;BME280;52474;52.236;5.114;2022-10-22T10:56:46;101288.66;;;20.89;100.00
59170;BME280;52474;52.236;5.114;2022-10-22T10:59:26;101300.75;;;21.29;100.00
59170;BME280;52474;52.236;5.114;2022-10-22T11:05:23;101285.81;;;25.72;100.00
59170;BME280;52474;52.236;5.114;2022-10-22T11:07:57;101293.06;;;26.28;100.00
59170;BME280;52474;52.236;5.114;2022-10-22T11:13:08;101297.81;;;23.21;100.00
59170;BME280;52474;52.236;5.114;2022-10-22T11:15:38;101307.28;;;25.42;100.00
59170;BME280;52474;52.236;5.114;2022-10-22T11:18:13;101295.13;;;26.08;100.00
59170;BME280;52474;52.236;5.114;2022-10-22T11:21:07;101300.41;;;29.20;100.00
59170;BME280;52474;52.236;5.114;2022-10-22T11:23:44;101309.78;;;26.69;100.00
59170;BME280;52474;52.236;5.114;2022-10-22T11:26:21;101304.06;;;27.26;100.00
59170;BME280;52474;52.236;5.114;2022-10-22T11:28:51;101285.66;;;23.98;100.00
59170;BME280;52474;52.236;5.114;2022-10-22T11:31:22;101291.16;;;21.41;100.00
59170;BME280;52474;52.236;5.114;2022-10-22T11:34:02;101311.97;;;20.67;100.00
59170;BME280;52474;52.236;5.114;2022-10-22T11:36:30;101307.00;;;25.57;100.00
59170;BME280;52474;52.236;5.114;2022-10-22T11:38:56;101299.09;;;22.49;100.00
59170;BME280;52474;52.236;5.114;2022-10-22T11:41:23;101313.63;;;29.00;100.00
59170;BME280;52474;52.236;5.114;2022-10-22T11:51:37;101323.63;;;19.06;100.00
59170;BME280;52474;52.236;5.114;2022-10-22T11:56:57;101321.38;;;25.57;100.00
59170;BME280;52474;52.236;5.114;2022-10-22T12:02:43;101329.03;;;25.99;100.00
59170;BME280;52474;52.236;5.114;2022-10-22T12:07:54;101326.06;;;19.78;100.00
59170;BME280;52474;52.236;5.114;2022-10-22T12:10:26;101330.84;;;19.68;100.00
59170;BME280;52474;52.236;5.114;2022-10-22T12:12:56;101328.66;;;18.61;100.00
59170;BME280;52474;52.236;5.114;2022-10-22T12:15:25;101338.47;;;18.94;100.00
59170;BME280;52474;52.236;5.114;2022-10-22T12:18:00;101335.31;;;19.52;100.00
59170;BME280;52474;52.236;5.114;2022-10-22T12:20:26;101343.78;;;19.64;100.00
59170;BME280;52474;52.236;5.114;2022-10-22T12:22:54;101337.25;;;19.59;100.00
59170;BME280;52474;52.236;5.114;2022-10-22T12:25:28;101346.91;;;19.99;100.00
59170;BME280;52474;52.236;5.114;2022-10-22T12:27:57;101336.06;;;20.45;100.00
59170;BME280;52474;52.236;5.114;2022-10-22T12:30:28;101332.69;;;22.75;100.00
59170;BME280;52474;52.236;5.114;2022-10-22T12:32:57;101341.06;;;23.34;100.00
59170;BME280;52474;52.236;5.114;2022-10-22T12:35:29;101338.56;;;25.76;100.00
59170;BME280;52474;52.236;5.114;2022-10-22T12:37:59;101352.81;;;26.53;100.00
59170;BME280;52474;52.236;5.114;2022-10-22T12:40:29;101339.22;;;26.03;100.00
59170;BME280;52474;52.236;5.114;2022-10-22T12:42:57;101344.00;;;23.40;100.00
59170;BME280;52474;52.236;5.114;2022-10-22T12:45:28;101349.06;;;21.89;100.00
59170;BME280;52474;52.236;5.114;2022-10-22T12:47:57;101353.53;;;20.94;100.00
59170;BME280;52474;52.236;5.114;2022-10-22T12:50:32;101335.84;;;20.17;100.00
59170;BME280;52474;52.236;5.114;2022-10-22T12:52:59;101349.50;;;19.61;100.00
59170;BME280;52474;52.236;5.114;2022-10-22T12:55:25;101326.28;;;19.77;100.00
59170;BME280;52474;52.236;5.114;2022-10-22T12:57:51;101351.75;;;20.04;100.00
59170;BME280;52474;52.236;5.114;2022-10-22T13:00:24;101335.72;;;19.64;100.00
59170;BME280;52474;52.236;5.114;2022-10-22T13:02:51;101340.03;;;19.73;100.00
59170;BME280;52474;52.236;5.114;2022-10-22T13:05:30;101341.47;;;20.07;100.00
59170;BME280;52474;52.236;5.114;2022-10-22T13:10:40;101313.50;;;19.93;100.00
59170;BME280;52474;52.236;5.114;2022-10-22T13:13:33;101328.75;;;19.78;100.00
59170;BME280;52474;52.236;5.114;2022-10-22T13:16:23;101335.44;;;19.59;100.00
59170;BME280;52474;52.236;5.114;2022-10-22T13:18:51;101341.03;;;19.49;100.00
59170;BME280;52474;52.236;5.114;2022-10-22T13:21:47;101340.81;;;19.59;100.00
59170;BME280;52474;52.236;5.114;2022-10-22T13:24:20;101341.81;;;19.27;100.00
59170;BME280;52474;52.236;5.114;2022-10-22T13:26:51;101341.66;;;18.89;100.00
59170;BME280;52474;52.236;5.114;2022-10-22T13:29:19;101352.75;;;18.78;100.00
59170;BME280;52474;52.236;5.114;2022-10-22T13:31:48;101335.81;;;18.69;100.00
59170;BME280;52474;52.236;5.114;2022-10-22T13:34:17;101340.69;;;18.74;100.00
59170;BME280;52474;52.236;5.114;2022-10-22T13:36:44;101337.31;;;18.72;100.00
59170;BME280;52474;52.236;5.114;2022-10-22T13:39:22;101335.53;;;18.56;100.00
59170;BME280;52474;52.236;5.114;2022-10-22T13:41:48;101350.59;;;18.57;100.00
59170;BME280;52474;52.236;5.114;2022-10-22T13:44:15;101346.09;;;18.41;100.00
59170;BME280;52474;52.236;5.114;2022-10-22T13:46:41;101355.50;;;18.37;100.00
59170;BME280;52474;52.236;5.114;2022-10-22T13:49:14;101331.41;;;18.12;100.00
59170;BME280;52474;52.236;5.114;2022-10-22T13:51:41;101348.34;;;18.05;100.00
59170;BME280;52474;52.236;5.114;2022-10-22T13:54:15;101339.97;;;17.99;100.00
59170;BME280;52474;52.236;5.114;2022-10-22T13:56:42;101355.19;;;18.15;100.00
59170;BME280;52474;52.236;5.114;2022-10-22T13:59:08;101353.16;;;18.01;100.00
59170;BME280;52474;52.236;5.114;2022-10-22T14:01:35;101344.81;;;17.96;100.00
59170;BME280;52474;52.236;5.114;2022-10-22T14:04:03;101354.53;;;18.05;100.00
59170;BME280;52474;52.236;5.114;2022-10-22T14:06:30;101346.16;;;18.00;100.00